createdAt,value
2017-12-30T00:01:35.938Z,1.77
2017-12-30T00:04:04.208Z,1.30
2017-12-30T00:06:32.463Z,2.03
2017-12-30T00:09:00.778Z,1.50
2017-12-30T00:11:29.079Z,1.33
2017-12-30T00:13:58.160Z,1.50
2017-12-30T00:16:26.452Z,1.13
2017-12-30T00:18:54.741Z,1.50
2017-12-30T00:21:23.036Z,1.30
2017-12-30T00:23:51.312Z,1.37
2017-12-30T00:26:19.576Z,1.23
2017-12-30T00:28:48.657Z,1.33
2017-12-30T00:31:16.957Z,1.43
2017-12-30T00:33:45.279Z,1.43
2017-12-30T00:36:13.574Z,1.40
2017-12-30T00:38:41.882Z,1.63
2017-12-30T00:41:10.162Z,1.37
2017-12-30T00:43:38.458Z,1.30
2017-12-30T00:46:06.687Z,1.47
2017-12-30T00:48:34.943Z,1.67
2017-12-30T00:51:03.233Z,1.30
2017-12-30T00:53:32.264Z,1.60
2017-12-30T00:56:00.543Z,1.20
2017-12-30T00:58:28.804Z,1.67
2017-12-30T01:00:57.050Z,1.90
2017-12-30T01:03:26.137Z,1.33
2017-12-30T01:05:54.374Z,1.30
2017-12-30T01:08:22.677Z,1.40
2017-12-30T01:10:50.924Z,1.77
2017-12-30T01:13:19.951Z,1.60
2017-12-30T01:15:48.204Z,1.80
2017-12-30T01:18:16.459Z,1.87
2017-12-30T01:20:44.717Z,1.83
2017-12-30T01:23:12.984Z,2.00
2017-12-30T01:25:42.005Z,1.70
2017-12-30T01:28:11.056Z,1.37
2017-12-30T01:30:39.320Z,1.30
2017-12-30T01:33:07.646Z,2.97
2017-12-30T01:35:35.930Z,2.40
2017-12-30T01:38:04.251Z,1.60
2017-12-30T01:40:32.528Z,2.27
2017-12-30T01:43:00.790Z,1.80
2017-12-30T01:45:29.024Z,1.57
2017-12-30T01:47:58.047Z,2.03
2017-12-30T01:50:27.080Z,1.60
2017-12-30T01:52:55.631Z,1.97
2017-12-30T01:55:23.892Z,2.70
2017-12-30T01:57:52.150Z,1.43
2017-12-30T02:00:20.425Z,1.50
2017-12-30T02:02:48.688Z,1.80
2017-12-30T02:05:17.712Z,2.50
2017-12-30T02:07:45.962Z,1.50
2017-12-30T02:10:14.227Z,1.90
2017-12-30T02:12:42.497Z,1.43
2017-12-30T02:15:10.767Z,1.77
2017-12-30T02:17:39.782Z,1.60
2017-12-30T02:20:08.047Z,1.57
2017-12-30T02:22:37.059Z,1.10
2017-12-30T02:25:06.087Z,1.60
2017-12-30T02:27:34.335Z,1.93
2017-12-30T02:30:02.604Z,1.33
2017-12-30T02:32:30.844Z,1.33
2017-12-30T02:34:59.877Z,1.30
2017-12-30T02:37:28.127Z,1.93
2017-12-30T02:39:56.403Z,1.53
2017-12-30T02:42:24.656Z,1.53
2017-12-30T02:44:52.916Z,1.60
2017-12-30T02:47:21.182Z,1.50
2017-12-30T02:49:50.208Z,1.30
2017-12-30T02:52:19.229Z,1.50
2017-12-30T02:54:47.506Z,1.83
2017-12-30T02:57:15.746Z,1.30
2017-12-30T02:59:43.996Z,1.80
2017-12-30T03:02:12.272Z,1.90
2017-12-30T03:04:40.528Z,1.67
2017-12-30T03:07:08.791Z,1.77
2017-12-30T03:09:37.040Z,2.03
2017-12-30T03:12:05.304Z,1.30
2017-12-30T03:14:34.328Z,1.80
2017-12-30T03:17:02.607Z,1.70
2017-12-30T03:19:31.627Z,1.60
2017-12-30T03:21:59.922Z,1.23
2017-12-30T03:24:28.180Z,1.87
2017-12-30T03:26:57.222Z,2.10
2017-12-30T03:29:25.473Z,1.80
2017-12-30T03:31:53.758Z,1.93
2017-12-30T03:34:22.028Z,2.53
2017-12-30T03:36:50.321Z,1.60
2017-12-30T03:39:18.584Z,1.47
2017-12-30T03:41:46.859Z,2.30
2017-12-30T03:44:15.120Z,1.77
2017-12-30T03:46:44.148Z,1.60
2017-12-30T03:49:12.410Z,1.63
2017-12-30T03:51:41.439Z,2.27
2017-12-30T03:54:09.686Z,1.60
2017-12-30T03:56:37.943Z,2.23
2017-12-30T03:59:06.203Z,2.30
2017-12-30T04:01:35.236Z,1.80
2017-12-30T04:04:03.487Z,1.90
2017-12-30T04:06:32.517Z,2.10
2017-12-30T04:09:00.770Z,2.07
2017-12-30T04:11:29.040Z,1.70
2017-12-30T04:13:57.308Z,1.50
2017-12-30T04:16:25.972Z,2.10
2017-12-30T04:18:54.995Z,2.47
2017-12-30T04:21:23.256Z,2.07
2017-12-30T04:23:52.300Z,2.03
2017-12-30T04:26:20.587Z,2.10
2017-12-30T04:28:48.848Z,2.20
2017-12-30T04:31:17.119Z,1.50
2017-12-30T04:33:46.167Z,1.70
2017-12-30T04:36:14.433Z,2.20
2017-12-30T04:38:43.447Z,1.97
2017-12-30T04:41:12.476Z,1.80
2017-12-30T04:43:40.749Z,1.93
2017-12-30T04:46:09.031Z,2.30
2017-12-30T04:48:37.301Z,1.80
2017-12-30T04:51:06.339Z,1.90
2017-12-30T04:53:34.616Z,2.23
2017-12-30T04:56:02.867Z,1.83
2017-12-30T04:58:31.141Z,1.90
2017-12-30T05:00:59.476Z,2.10
2017-12-30T05:03:28.516Z,2.30
2017-12-30T05:05:56.793Z,2.23
2017-12-30T05:08:25.055Z,1.63
2017-12-30T05:10:54.076Z,2.00
2017-12-30T05:13:22.380Z,1.87
2017-12-30T05:15:50.639Z,1.40
2017-12-30T05:18:19.677Z,2.10
2017-12-30T05:20:47.947Z,1.83
2017-12-30T05:23:16.231Z,1.83
2017-12-30T05:25:45.239Z,2.00
2017-12-30T05:28:13.513Z,2.30
2017-12-30T05:30:42.538Z,1.70
2017-12-30T05:33:10.806Z,1.60
2017-12-30T05:35:39.818Z,1.93
2017-12-30T05:38:08.872Z,2.57
2017-12-30T05:40:37.117Z,2.20
2017-12-30T05:43:06.150Z,2.10
2017-12-30T05:45:34.399Z,1.77
2017-12-30T05:48:02.651Z,1.80
2017-12-30T05:50:31.691Z,2.20
2017-12-30T05:52:59.943Z,2.63
2017-12-30T05:55:28.219Z,1.90
2017-12-30T05:57:56.482Z,1.80
2017-12-30T06:00:24.761Z,1.63
2017-12-30T06:02:53.772Z,1.77
2017-12-30T06:05:22.031Z,1.33
2017-12-30T06:07:50.287Z,1.60
2017-12-30T06:10:18.587Z,2.07
2017-12-30T06:12:46.840Z,1.90
2017-12-30T06:15:15.086Z,2.37
2017-12-30T06:17:43.335Z,1.50
2017-12-30T06:20:11.595Z,1.60
2017-12-30T06:22:39.859Z,2.23
2017-12-30T06:25:08.907Z,2.40
2017-12-30T06:27:37.146Z,2.33
2017-12-30T06:30:05.419Z,2.00
2017-12-30T06:32:33.684Z,2.47
2017-12-30T06:35:01.959Z,2.10
2017-12-30T06:37:30.212Z,1.77
2017-12-30T06:39:58.501Z,2.00
2017-12-30T06:42:26.779Z,1.57
2017-12-30T06:44:55.059Z,1.90
2017-12-30T06:47:23.328Z,1.73
2017-12-30T06:49:51.603Z,2.20
2017-12-30T06:52:19.867Z,2.23
2017-12-30T06:54:48.892Z,1.50
2017-12-30T06:57:17.173Z,1.70
2017-12-30T06:59:46.199Z,1.70
2017-12-30T07:02:14.471Z,1.80
2017-12-30T07:04:42.909Z,1.83
2017-12-30T07:07:11.167Z,1.13
2017-12-30T07:09:39.436Z,2.20
2017-12-30T07:12:08.837Z,1.67
2017-12-30T07:14:37.880Z,1.53
2017-12-30T07:17:06.153Z,1.50
2017-12-30T07:19:34.409Z,1.63
2017-12-30T07:22:02.679Z,1.83
2017-12-30T07:24:30.935Z,1.20
2017-12-30T07:26:59.209Z,1.20
2017-12-30T07:29:28.857Z,1.30
2017-12-30T07:31:57.121Z,1.87
2017-12-30T07:34:25.375Z,1.30
2017-12-30T07:36:54.120Z,1.50
2017-12-30T07:39:22.471Z,1.43
2017-12-30T07:41:50.997Z,1.53
2017-12-30T07:44:21.851Z,1.30
2017-12-30T07:46:50.107Z,1.17
2017-12-30T07:49:18.775Z,1.30
2017-12-30T07:51:47.965Z,1.10
2017-12-30T07:54:16.914Z,1.20
2017-12-30T07:56:45.168Z,1.07
2017-12-30T07:59:13.432Z,2.13
2017-12-30T08:01:41.700Z,2.03
2017-12-30T08:04:10.715Z,1.40
2017-12-30T08:06:39.777Z,1.10
2017-12-30T08:09:08.007Z,1.00
2017-12-30T08:11:37.046Z,1.10
2017-12-30T08:14:05.275Z,0.93
2017-12-30T08:16:33.652Z,1.00
2017-12-30T08:19:02.062Z,0.80
2017-12-30T08:21:30.340Z,1.03
2017-12-30T08:23:58.595Z,0.90
2017-12-30T08:26:26.954Z,0.90
2017-12-30T08:28:56.109Z,0.80
2017-12-30T08:31:24.396Z,0.90
2017-12-30T08:33:52.648Z,0.93
2017-12-30T08:36:22.451Z,0.90
2017-12-30T08:38:50.687Z,1.00
2017-12-30T08:41:18.960Z,1.03
2017-12-30T08:43:48.065Z,0.70
2017-12-30T08:46:17.235Z,0.80
2017-12-30T08:48:45.527Z,0.80
2017-12-30T08:51:14.184Z,0.90
2017-12-30T08:53:42.570Z,1.10
2017-12-30T08:56:10.807Z,0.80
2017-12-30T08:58:39.085Z,1.00
2017-12-30T09:01:08.463Z,0.70
2017-12-30T09:03:36.735Z,0.80
2017-12-30T09:06:05.750Z,0.70
2017-12-30T09:08:34.454Z,0.90
2017-12-30T09:11:04.657Z,0.77
2017-12-30T09:13:33.136Z,0.80
2017-12-30T09:16:01.948Z,0.80
2017-12-30T09:18:31.627Z,0.80
2017-12-30T09:21:00.932Z,0.90
2017-12-30T09:23:29.244Z,1.00
2017-12-30T09:25:57.621Z,0.77
2017-12-30T09:28:26.524Z,0.77
2017-12-30T09:30:54.889Z,0.70
2017-12-30T09:33:24.895Z,0.80
2017-12-30T09:35:54.437Z,0.70
2017-12-30T09:38:23.880Z,0.80
2017-12-30T09:40:52.316Z,0.90
2017-12-30T09:43:21.177Z,0.90
2017-12-30T09:45:49.639Z,0.80
2017-12-30T09:48:19.509Z,0.73
2017-12-30T09:50:48.013Z,0.80
2017-12-30T09:53:16.767Z,1.00
2017-12-30T09:55:46.287Z,0.80
2017-12-30T09:58:15.689Z,0.90
2017-12-30T10:00:45.376Z,0.80
2017-12-30T10:03:13.895Z,0.70
2017-12-30T10:05:43.165Z,0.70
2017-12-30T10:08:12.159Z,0.63
2017-12-30T10:10:40.619Z,0.70
2017-12-30T10:13:10.648Z,0.80
2017-12-30T10:15:40.590Z,0.80
2017-12-30T10:18:11.162Z,0.70
2017-12-30T10:20:40.114Z,0.80
2017-12-30T10:23:08.543Z,0.80
2017-12-30T10:25:37.297Z,0.80
2017-12-30T10:28:06.278Z,0.80
2017-12-30T10:30:35.169Z,0.80
2017-12-30T10:33:04.150Z,0.80
2017-12-30T10:35:32.844Z,0.80
2017-12-30T10:38:01.624Z,0.90
2017-12-30T10:40:30.457Z,0.80
2017-12-30T10:42:59.332Z,0.83
2017-12-30T10:45:28.183Z,1.00
2017-12-30T10:47:56.801Z,0.70
2017-12-30T10:50:25.430Z,0.73
2017-12-30T10:52:54.153Z,0.80
2017-12-30T10:55:23.035Z,1.10
2017-12-30T10:57:52.694Z,1.03
2017-12-30T11:00:21.206Z,1.10
2017-12-30T11:02:49.781Z,0.93
2017-12-30T11:05:18.667Z,1.00
2017-12-30T11:07:47.807Z,0.80
2017-12-30T11:10:16.600Z,0.80
2017-12-30T11:12:45.180Z,0.80
2017-12-30T11:15:13.967Z,1.67
2017-12-30T11:17:43.957Z,0.80
2017-12-30T11:20:13.136Z,1.10
2017-12-30T11:22:42.028Z,1.07
2017-12-30T11:25:10.660Z,0.90
2017-12-30T11:27:39.144Z,0.83
2017-12-30T11:30:07.604Z,0.90
2017-12-30T11:32:36.259Z,0.90
2017-12-30T11:35:05.273Z,0.90
2017-12-30T11:37:34.279Z,1.07
2017-12-30T11:40:03.034Z,0.83
2017-12-30T11:42:31.918Z,1.07
2017-12-30T11:45:01.232Z,0.80
2017-12-30T11:47:30.543Z,0.97
2017-12-30T11:50:00.215Z,0.90
2017-12-30T11:52:28.925Z,0.90
2017-12-30T11:54:57.536Z,1.00
2017-12-30T11:57:26.368Z,1.00
2017-12-30T11:59:55.010Z,0.90
2017-12-30T12:02:23.573Z,0.80
2017-12-30T12:04:52.162Z,1.00
2017-12-30T12:07:21.881Z,0.80
2017-12-30T12:09:50.622Z,0.80
2017-12-30T12:12:19.303Z,0.90
2017-12-30T12:14:48.086Z,0.90
2017-12-30T12:17:16.836Z,1.00
2017-12-30T12:19:45.644Z,1.03
2017-12-30T12:22:14.124Z,1.00
2017-12-30T12:24:42.833Z,2.37
2017-12-30T12:27:11.685Z,3.87
2017-12-30T12:29:40.186Z,1.03
2017-12-30T12:32:09.105Z,1.13
2017-12-30T12:34:37.677Z,1.10
2017-12-30T12:37:06.667Z,0.90
2017-12-30T12:39:36.220Z,1.50
2017-12-30T12:42:04.879Z,1.10
2017-12-30T12:44:34.086Z,1.00
2017-12-30T12:47:03.738Z,0.70
2017-12-30T12:49:32.745Z,0.80
2017-12-30T12:52:01.810Z,0.90
2017-12-30T12:54:30.732Z,0.87
2017-12-30T12:57:00.968Z,0.83
2017-12-30T12:59:31.762Z,0.80
2017-12-30T13:02:00.043Z,0.80
2017-12-30T13:04:28.745Z,0.90
2017-12-30T13:06:57.114Z,0.80
2017-12-30T13:09:25.875Z,1.00
2017-12-30T13:11:54.272Z,1.00
2017-12-30T13:14:22.572Z,1.00
2017-12-30T13:16:51.720Z,0.90
2017-12-30T13:19:20.019Z,0.80
2017-12-30T13:21:48.305Z,1.13
2017-12-30T13:24:17.694Z,1.10
2017-12-30T13:26:47.222Z,1.47
2017-12-30T13:29:15.771Z,1.03
2017-12-30T13:31:44.160Z,1.10
2017-12-30T13:34:12.692Z,1.00
2017-12-30T13:36:42.113Z,1.23
2017-12-30T13:39:10.844Z,1.53
2017-12-30T13:41:39.319Z,1.30
2017-12-30T13:44:07.734Z,1.10
2017-12-30T13:46:36.294Z,0.90
2017-12-30T13:49:04.728Z,1.23
2017-12-30T13:51:33.312Z,1.10
2017-12-30T13:54:01.750Z,1.33
2017-12-30T13:56:31.021Z,1.00
2017-12-30T13:58:59.386Z,1.20
2017-12-30T14:01:27.788Z,1.43
2017-12-30T14:03:56.235Z,1.00
2017-12-30T14:06:25.461Z,1.33
2017-12-30T14:08:54.942Z,1.53
2017-12-30T14:11:23.590Z,1.30
2017-12-30T14:13:52.148Z,1.23
2017-12-30T14:16:20.713Z,1.27
2017-12-30T14:18:49.310Z,1.40
2017-12-30T14:21:17.896Z,1.23
2017-12-30T14:23:46.549Z,1.10
2017-12-30T14:26:15.300Z,1.00
2017-12-30T14:28:43.781Z,1.13
2017-12-30T14:31:12.549Z,1.37
2017-12-30T14:33:41.867Z,1.30
2017-12-30T14:36:11.169Z,1.87
2017-12-30T14:38:39.931Z,1.10
2017-12-30T14:41:08.328Z,1.10
2017-12-30T14:43:37.213Z,1.13
2017-12-30T14:46:06.002Z,0.90
2017-12-30T14:48:34.575Z,1.03
2017-12-30T14:51:03.768Z,1.37
2017-12-30T14:53:32.201Z,1.10
2017-12-30T14:58:35.056Z,1.07
2017-12-30T15:01:03.331Z,1.00
2017-12-30T15:03:31.600Z,1.00
2017-12-30T15:06:00.610Z,1.30
2017-12-30T15:08:29.186Z,1.00
2017-12-30T15:10:58.645Z,0.93
2017-12-30T15:13:27.936Z,1.40
2017-12-30T15:15:56.259Z,1.00
2017-12-30T15:18:25.261Z,0.90
2017-12-30T15:20:53.851Z,1.00
2017-12-30T15:23:23.324Z,1.00
2017-12-30T15:25:51.695Z,1.03
2017-12-30T15:28:20.438Z,1.30
2017-12-30T15:30:49.045Z,1.00
2017-12-30T15:33:17.405Z,1.00
2017-12-30T15:35:47.890Z,1.10
2017-12-30T15:38:16.793Z,1.00
2017-12-30T15:40:45.296Z,1.20
2017-12-30T15:43:13.690Z,1.10
2017-12-30T15:45:42.850Z,1.10
2017-12-30T15:48:12.065Z,1.20
2017-12-30T15:50:41.174Z,1.13
2017-12-30T15:53:10.221Z,1.00
2017-12-30T15:55:38.661Z,1.20
2017-12-30T15:58:07.088Z,1.10
2017-12-30T16:00:36.641Z,0.90
2017-12-30T16:03:04.980Z,1.10
2017-12-30T16:05:34.456Z,0.80
2017-12-30T16:08:02.767Z,1.00
2017-12-30T16:10:31.434Z,1.07
2017-12-30T16:12:59.876Z,0.80
2017-12-30T16:15:28.661Z,0.97
2017-12-30T16:17:57.516Z,1.17
2017-12-30T16:20:27.295Z,0.90
2017-12-30T16:22:55.624Z,1.20
2017-12-30T16:25:23.950Z,1.00
2017-12-30T16:27:52.993Z,0.90
2017-12-30T16:30:22.438Z,1.00
2017-12-30T16:32:50.724Z,1.17
2017-12-30T16:35:19.000Z,1.27
2017-12-30T16:37:48.475Z,1.50
2017-12-30T16:40:16.733Z,1.10
2017-12-30T16:42:45.029Z,1.07
2017-12-30T16:45:13.371Z,1.97
2017-12-30T16:47:42.416Z,1.13
2017-12-30T16:50:10.696Z,1.20
2017-12-30T16:52:38.960Z,1.00
2017-12-30T16:55:08.100Z,1.20
2017-12-30T16:57:36.399Z,1.30
2017-12-30T17:00:04.735Z,1.03
2017-12-30T17:02:33.040Z,1.20
2017-12-30T17:05:02.095Z,1.17
2017-12-30T17:07:30.357Z,1.13
2017-12-30T17:09:59.416Z,1.07
2017-12-30T17:12:27.762Z,2.20
2017-12-30T17:14:56.057Z,1.30
2017-12-30T17:17:24.321Z,1.20
2017-12-30T17:19:53.347Z,1.13
2017-12-30T17:22:21.611Z,1.00
2017-12-30T17:24:50.664Z,1.07
2017-12-30T17:27:18.932Z,1.10
2017-12-30T17:29:47.274Z,1.10
2017-12-30T17:32:15.553Z,1.10
2017-12-30T17:34:43.897Z,1.20
2017-12-30T17:37:13.929Z,1.67
2017-12-30T17:39:42.207Z,1.40
2017-12-30T17:42:10.557Z,1.30
2017-12-30T17:44:38.849Z,1.27
2017-12-30T17:47:07.176Z,1.10
2017-12-30T17:49:36.215Z,1.00
2017-12-30T17:52:05.643Z,1.37
2017-12-30T17:54:33.992Z,1.30
2017-12-30T17:57:03.067Z,1.10
2017-12-30T17:59:32.123Z,1.10
2017-12-30T18:02:00.426Z,1.40
2017-12-30T18:04:28.725Z,1.20
2017-12-30T18:06:57.047Z,1.20
2017-12-30T18:09:25.342Z,1.20
2017-12-30T18:11:53.653Z,0.93
2017-12-30T18:14:22.718Z,1.27
2017-12-30T18:16:51.100Z,1.60
2017-12-30T18:19:19.400Z,1.10
2017-12-30T18:21:47.769Z,0.93
2017-12-30T18:24:16.096Z,1.17
2017-12-30T18:26:44.435Z,1.40
2017-12-30T18:29:12.705Z,1.23
2017-12-30T18:31:41.754Z,1.20
2017-12-30T18:34:10.063Z,0.90
2017-12-30T18:36:38.391Z,1.27
2017-12-30T18:39:07.451Z,1.50
2017-12-30T18:41:35.780Z,1.23
2017-12-30T18:44:04.086Z,1.10
2017-12-30T18:46:33.179Z,1.37
2017-12-30T18:49:01.506Z,1.13
2017-12-30T18:51:29.893Z,1.13
2017-12-30T18:53:58.224Z,1.00
2017-12-30T18:56:26.565Z,1.00
2017-12-30T18:58:54.878Z,1.00
2017-12-30T19:01:23.255Z,1.10
2017-12-30T19:03:51.570Z,1.40
2017-12-30T19:06:19.894Z,1.33
2017-12-30T19:08:48.156Z,1.00
2017-12-30T19:11:16.478Z,1.23
2017-12-30T19:13:44.788Z,1.50
2017-12-30T19:16:13.906Z,1.30
2017-12-30T19:18:43.019Z,1.23
2017-12-30T19:21:12.115Z,1.30
2017-12-30T19:23:40.454Z,1.30
2017-12-30T19:26:08.760Z,1.40
2017-12-30T19:28:37.076Z,1.30
2017-12-30T19:31:06.166Z,1.40
2017-12-30T19:33:34.489Z,1.10
2017-12-30T19:36:02.815Z,1.03
2017-12-30T19:38:31.152Z,1.20
2017-12-30T19:40:59.464Z,1.07
2017-12-30T19:43:27.792Z,0.97
2017-12-30T19:45:56.096Z,1.20
2017-12-30T19:48:24.483Z,1.27
2017-12-30T19:50:52.807Z,1.30
2017-12-30T19:53:21.131Z,1.13
2017-12-30T19:55:50.223Z,1.07
2017-12-30T19:58:18.548Z,1.17
2017-12-30T20:00:46.870Z,1.30
2017-12-30T20:03:15.199Z,1.27
2017-12-30T20:05:44.267Z,1.40
2017-12-30T20:08:12.604Z,1.17
2017-12-30T20:10:40.940Z,1.60
2017-12-30T20:13:09.264Z,1.10
2017-12-30T20:15:37.571Z,1.20
2017-12-30T20:18:06.674Z,1.20
2017-12-30T20:20:35.762Z,1.30
2017-12-30T20:23:04.103Z,1.23
2017-12-30T20:25:32.409Z,1.20
2017-12-30T20:28:00.733Z,1.13
2017-12-30T20:30:29.037Z,1.30
2017-12-30T20:32:58.137Z,1.20
2017-12-30T20:35:26.434Z,1.20
2017-12-30T20:37:54.765Z,1.40
2017-12-30T20:40:23.140Z,1.10
2017-12-30T20:42:51.453Z,1.10
2017-12-30T20:45:19.768Z,1.10
2017-12-30T20:47:48.086Z,1.10
2017-12-30T20:50:16.491Z,1.10
2017-12-30T20:52:45.562Z,1.10
2017-12-30T20:55:13.907Z,1.20
2017-12-30T20:57:42.226Z,1.20
2017-12-30T21:00:10.551Z,1.40
2017-12-30T21:02:39.647Z,1.40
2017-12-30T21:05:09.470Z,1.37
2017-12-30T21:07:37.851Z,1.00
2017-12-30T21:10:06.948Z,1.40
2017-12-30T21:12:35.262Z,1.30
2017-12-30T21:15:03.599Z,1.27
2017-12-30T21:17:31.920Z,1.60
2017-12-30T21:20:00.253Z,0.93
2017-12-30T21:22:29.341Z,1.10
2017-12-30T21:24:57.656Z,1.00
2017-12-30T21:27:26.727Z,0.97
2017-12-30T21:29:55.083Z,1.10
2017-12-30T21:32:23.410Z,0.80
2017-12-30T21:34:51.731Z,1.17
2017-12-30T21:37:21.009Z,0.90
2017-12-30T21:39:49.335Z,0.90
2017-12-30T21:42:18.455Z,1.00
2017-12-30T21:44:49.491Z,0.97
2017-12-30T21:47:18.591Z,0.70
2017-12-30T21:49:47.687Z,0.87
2017-12-30T21:52:16.006Z,0.70
2017-12-30T21:54:45.319Z,0.77
2017-12-30T21:57:13.628Z,0.77
2017-12-30T21:59:42.742Z,0.70
2017-12-30T22:02:11.089Z,0.80
2017-12-30T22:04:39.412Z,0.77
2017-12-30T22:07:08.478Z,0.80
2017-12-30T22:09:36.812Z,0.80
2017-12-30T22:12:05.884Z,0.60
2017-12-30T22:14:34.234Z,0.73
2017-12-30T22:17:02.576Z,0.60
2017-12-30T22:19:30.884Z,0.70
2017-12-30T22:21:59.962Z,0.60
2017-12-30T22:24:28.261Z,0.60
2017-12-30T22:26:56.578Z,0.73
2017-12-30T22:29:25.626Z,0.70
2017-12-30T22:31:53.971Z,0.60
2017-12-30T22:34:23.073Z,0.70
2017-12-30T22:36:51.405Z,0.80
2017-12-30T22:39:19.752Z,0.80
2017-12-30T22:41:48.075Z,0.67
2017-12-30T22:44:16.386Z,0.70
2017-12-30T22:46:44.722Z,0.60
2017-12-30T22:49:14.022Z,0.57
2017-12-30T22:51:42.373Z,0.60
2017-12-30T22:54:10.688Z,0.60
2017-12-30T22:56:39.017Z,0.60
2017-12-30T22:59:08.679Z,0.70
2017-12-30T23:01:37.010Z,0.60
2017-12-30T23:04:06.318Z,0.60
2017-12-30T23:06:34.656Z,0.60
2017-12-30T23:09:02.961Z,0.70
2017-12-30T23:11:31.276Z,0.70
2017-12-30T23:13:59.583Z,0.60
2017-12-30T23:16:27.928Z,0.70
2017-12-30T23:18:56.243Z,0.60
2017-12-30T23:21:24.572Z,0.70
2017-12-30T23:23:53.646Z,0.63
2017-12-30T23:26:21.980Z,0.70
2017-12-30T23:28:51.073Z,0.63
2017-12-30T23:31:19.389Z,0.73
2017-12-30T23:33:47.698Z,0.80
2017-12-30T23:36:16.020Z,0.70
2017-12-30T23:38:44.334Z,0.80
2017-12-30T23:41:12.661Z,0.60
2017-12-30T23:43:41.028Z,0.70
2017-12-30T23:46:10.108Z,0.80
2017-12-30T23:48:38.438Z,0.67
2017-12-30T23:51:06.758Z,0.77
2017-12-30T23:53:35.088Z,1.00
2017-12-30T23:56:03.412Z,0.80
2017-12-30T23:58:31.754Z,0.70
